sensor_id;sensor_type;location;lat;lon;timestamp;P1;durP1;ratioP1;P2;durP2;ratioP2
65597;SDS011;52267;51.984;20.956;2022-07-11T00:00:03;3.60;;;1.90;;
65597;SDS011;52267;51.984;20.956;2022-07-11T00:02:52;4.50;;;2.00;;
65597;SDS011;52267;51.984;20.956;2022-07-11T00:05:18;3.30;;;1.50;;
65597;SDS011;52267;51.984;20.956;2022-07-11T00:07:44;4.20;;;1.90;;
65597;SDS011;52267;51.984;20.956;2022-07-11T00:10:10;3.60;;;1.70;;
65597;SDS011;52267;51.984;20.956;2022-07-11T00:12:37;2.80;;;1.80;;
65597;SDS011;52267;51.984;20.956;2022-07-11T00:15:03;8.50;;;2.20;;
65597;SDS011;52267;51.984;20.956;2022-07-11T00:17:30;3.30;;;1.60;;
65597;SDS011;52267;51.984;20.956;2022-07-11T00:19:56;2.90;;;1.70;;
65597;SDS011;52267;51.984;20.956;2022-07-11T00:22:24;3.20;;;1.80;;
65597;SDS011;52267;51.984;20.956;2022-07-11T00:24:50;3.30;;;1.70;;
65597;SDS011;52267;51.984;20.956;2022-07-11T00:27:16;3.40;;;2.10;;
65597;SDS011;52267;51.984;20.956;2022-07-11T00:29:43;3.50;;;1.70;;
65597;SDS011;52267;51.984;20.956;2022-07-11T00:32:09;3.90;;;2.10;;
65597;SDS011;52267;51.984;20.956;2022-07-11T00:34:35;3.80;;;1.90;;
65597;SDS011;52267;51.984;20.956;2022-07-11T00:37:02;5.10;;;2.40;;
65597;SDS011;52267;51.984;20.956;2022-07-11T00:39:28;3.20;;;1.60;;
65597;SDS011;52267;51.984;20.956;2022-07-11T00:41:55;4.40;;;1.80;;
65597;SDS011;52267;51.984;20.956;2022-07-11T00:44:21;4.10;;;1.90;;
65597;SDS011;52267;51.984;20.956;2022-07-11T00:46:47;3.40;;;2.10;;
65597;SDS011;52267;51.984;20.956;2022-07-11T00:49:13;6.40;;;2.20;;
65597;SDS011;52267;51.984;20.956;2022-07-11T00:51:40;5.00;;;1.90;;
65597;SDS011;52267;51.984;20.956;2022-07-11T00:54:07;3.10;;;1.90;;
65597;SDS011;52267;51.984;20.956;2022-07-11T00:56:35;6.10;;;2.60;;
65597;SDS011;52267;51.984;20.956;2022-07-11T00:59:04;6.90;;;2.90;;
65597;SDS011;52267;51.984;20.956;2022-07-11T01:01:32;5.90;;;1.80;;
65597;SDS011;52267;51.984;20.956;2022-07-11T01:04:01;5.80;;;2.40;;
65597;SDS011;52267;51.984;20.956;2022-07-11T01:06:28;3.90;;;2.40;;
65597;SDS011;52267;51.984;20.956;2022-07-11T01:08:54;4.20;;;2.40;;
65597;SDS011;52267;51.984;20.956;2022-07-11T01:11:21;5.50;;;2.20;;
65597;SDS011;52267;51.984;20.956;2022-07-11T01:13:48;4.40;;;2.80;;
65597;SDS011;52267;51.984;20.956;2022-07-11T01:16:21;4.10;;;2.10;;
65597;SDS011;52267;51.984;20.956;2022-07-11T01:18:53;3.70;;;1.70;;
65597;SDS011;52267;51.984;20.956;2022-07-11T01:21:29;3.50;;;2.20;;
65597;SDS011;52267;51.984;20.956;2022-07-11T01:23:59;5.20;;;2.20;;
65597;SDS011;52267;51.984;20.956;2022-07-11T01:26:27;7.60;;;2.40;;
65597;SDS011;52267;51.984;20.956;2022-07-11T01:28:54;4.30;;;2.30;;
65597;SDS011;52267;51.984;20.956;2022-07-11T01:31:25;4.20;;;2.30;;
65597;SDS011;52267;51.984;20.956;2022-07-11T01:33:52;3.70;;;2.10;;
65597;SDS011;52267;51.984;20.956;2022-07-11T01:36:18;4.90;;;2.40;;
65597;SDS011;52267;51.984;20.956;2022-07-11T01:38:45;5.30;;;2.30;;
65597;SDS011;52267;51.984;20.956;2022-07-11T01:41:11;4.80;;;2.40;;
65597;SDS011;52267;51.984;20.956;2022-07-11T01:43:37;4.50;;;2.20;;
65597;SDS011;52267;51.984;20.956;2022-07-11T01:46:04;3.70;;;2.20;;
65597;SDS011;52267;51.984;20.956;2022-07-11T01:48:30;5.00;;;3.10;;
65597;SDS011;52267;51.984;20.956;2022-07-11T01:50:56;5.10;;;2.50;;
65597;SDS011;52267;51.984;20.956;2022-07-11T01:53:23;5.20;;;2.70;;
65597;SDS011;52267;51.984;20.956;2022-07-11T01:55:49;6.00;;;3.00;;
65597;SDS011;52267;51.984;20.956;2022-07-11T01:58:16;5.40;;;2.70;;
65597;SDS011;52267;51.984;20.956;2022-07-11T02:00:43;6.20;;;3.00;;
65597;SDS011;52267;51.984;20.956;2022-07-11T02:03:09;4.50;;;2.50;;
65597;SDS011;52267;51.984;20.956;2022-07-11T02:05:35;5.30;;;2.60;;
65597;SDS011;52267;51.984;20.956;2022-07-11T02:08:08;3.70;;;2.30;;
65597;SDS011;52267;51.984;20.956;2022-07-11T02:10:48;6.20;;;2.60;;
65597;SDS011;52267;51.984;20.956;2022-07-11T02:13:17;4.40;;;3.00;;
65597;SDS011;52267;51.984;20.956;2022-07-11T02:15:45;6.40;;;2.50;;
65597;SDS011;52267;51.984;20.956;2022-07-11T02:20:44;4.20;;;2.80;;
65597;SDS011;52267;51.984;20.956;2022-07-11T02:23:18;5.80;;;2.80;;
65597;SDS011;52267;51.984;20.956;2022-07-11T02:25:45;5.20;;;2.70;;
65597;SDS011;52267;51.984;20.956;2022-07-11T02:28:12;4.70;;;2.20;;
65597;SDS011;52267;51.984;20.956;2022-07-11T02:30:41;6.10;;;3.00;;
65597;SDS011;52267;51.984;20.956;2022-07-11T02:33:08;4.40;;;2.70;;
65597;SDS011;52267;51.984;20.956;2022-07-11T02:38:05;6.00;;;3.00;;
65597;SDS011;52267;51.984;20.956;2022-07-11T02:40:32;5.50;;;2.80;;
65597;SDS011;52267;51.984;20.956;2022-07-11T02:42:59;6.10;;;3.20;;
65597;SDS011;52267;51.984;20.956;2022-07-11T02:45:25;5.20;;;2.90;;
65597;SDS011;52267;51.984;20.956;2022-07-11T02:47:51;6.20;;;2.80;;
65597;SDS011;52267;51.984;20.956;2022-07-11T02:50:17;4.40;;;2.40;;
65597;SDS011;52267;51.984;20.956;2022-07-11T02:52:44;5.70;;;3.00;;
65597;SDS011;52267;51.984;20.956;2022-07-11T02:55:11;8.20;;;3.60;;
65597;SDS011;52267;51.984;20.956;2022-07-11T02:57:39;7.50;;;3.40;;
65597;SDS011;52267;51.984;20.956;2022-07-11T03:00:11;6.60;;;4.00;;
65597;SDS011;52267;51.984;20.956;2022-07-11T03:02:39;9.80;;;3.80;;
65597;SDS011;52267;51.984;20.956;2022-07-11T03:05:06;6.80;;;3.80;;
65597;SDS011;52267;51.984;20.956;2022-07-11T03:07:32;8.70;;;3.80;;
65597;SDS011;52267;51.984;20.956;2022-07-11T03:09:59;7.00;;;3.90;;
65597;SDS011;52267;51.984;20.956;2022-07-11T03:12:25;9.10;;;4.30;;
65597;SDS011;52267;51.984;20.956;2022-07-11T03:14:51;6.70;;;3.80;;
65597;SDS011;52267;51.984;20.956;2022-07-11T03:17:18;9.00;;;4.20;;
65597;SDS011;52267;51.984;20.956;2022-07-11T03:19:45;9.50;;;4.60;;
65597;SDS011;52267;51.984;20.956;2022-07-11T03:22:16;7.50;;;3.70;;
65597;SDS011;52267;51.984;20.956;2022-07-11T03:24:42;5.70;;;3.80;;
65597;SDS011;52267;51.984;20.956;2022-07-11T03:27:09;8.40;;;4.30;;
65597;SDS011;52267;51.984;20.956;2022-07-11T03:29:36;8.70;;;4.50;;
65597;SDS011;52267;51.984;20.956;2022-07-11T03:32:03;7.60;;;4.60;;
65597;SDS011;52267;51.984;20.956;2022-07-11T03:34:29;10.40;;;4.50;;
65597;SDS011;52267;51.984;20.956;2022-07-11T03:36:55;7.80;;;4.50;;
65597;SDS011;52267;51.984;20.956;2022-07-11T03:39:22;7.90;;;4.80;;
65597;SDS011;52267;51.984;20.956;2022-07-11T03:41:48;8.30;;;3.90;;
65597;SDS011;52267;51.984;20.956;2022-07-11T03:44:15;10.30;;;4.50;;
65597;SDS011;52267;51.984;20.956;2022-07-11T03:46:41;7.40;;;4.40;;
65597;SDS011;52267;51.984;20.956;2022-07-11T03:49:07;7.20;;;3.40;;
65597;SDS011;52267;51.984;20.956;2022-07-11T03:51:34;8.00;;;3.50;;
65597;SDS011;52267;51.984;20.956;2022-07-11T03:54:00;7.50;;;3.40;;
65597;SDS011;52267;51.984;20.956;2022-07-11T03:56:28;5.60;;;3.70;;
65597;SDS011;52267;51.984;20.956;2022-07-11T03:58:54;7.00;;;3.40;;
65597;SDS011;52267;51.984;20.956;2022-07-11T04:01:21;8.10;;;3.90;;
65597;SDS011;52267;51.984;20.956;2022-07-11T04:04:19;8.00;;;3.60;;
65597;SDS011;52267;51.984;20.956;2022-07-11T04:06:45;5.80;;;3.40;;
65597;SDS011;52267;51.984;20.956;2022-07-11T04:09:12;5.00;;;3.10;;
65597;SDS011;52267;51.984;20.956;2022-07-11T04:11:38;6.30;;;3.60;;
65597;SDS011;52267;51.984;20.956;2022-07-11T04:14:04;7.50;;;3.10;;
65597;SDS011;52267;51.984;20.956;2022-07-11T04:16:30;7.30;;;3.20;;
65597;SDS011;52267;51.984;20.956;2022-07-11T04:18:56;7.00;;;3.00;;
65597;SDS011;52267;51.984;20.956;2022-07-11T04:21:25;6.90;;;3.20;;
65597;SDS011;52267;51.984;20.956;2022-07-11T04:23:52;4.90;;;2.90;;
65597;SDS011;52267;51.984;20.956;2022-07-11T04:26:18;6.10;;;2.20;;
65597;SDS011;52267;51.984;20.956;2022-07-11T04:28:44;4.30;;;2.90;;
65597;SDS011;52267;51.984;20.956;2022-07-11T04:31:11;5.60;;;2.60;;
65597;SDS011;52267;51.984;20.956;2022-07-11T04:33:37;4.90;;;3.20;;
65597;SDS011;52267;51.984;20.956;2022-07-11T04:36:03;5.50;;;3.10;;
65597;SDS011;52267;51.984;20.956;2022-07-11T04:38:29;5.60;;;4.20;;
65597;SDS011;52267;51.984;20.956;2022-07-11T04:40:56;9.20;;;5.50;;
65597;SDS011;52267;51.984;20.956;2022-07-11T04:43:22;7.10;;;5.30;;
65597;SDS011;52267;51.984;20.956;2022-07-11T04:45:48;8.60;;;5.50;;
65597;SDS011;52267;51.984;20.956;2022-07-11T04:48:15;8.80;;;5.00;;
65597;SDS011;52267;51.984;20.956;2022-07-11T04:50:44;9.40;;;5.00;;
65597;SDS011;52267;51.984;20.956;2022-07-11T04:53:11;6.60;;;4.50;;
65597;SDS011;52267;51.984;20.956;2022-07-11T04:55:38;8.30;;;4.40;;
65597;SDS011;52267;51.984;20.956;2022-07-11T04:58:08;8.60;;;5.90;;
65597;SDS011;52267;51.984;20.956;2022-07-11T05:00:35;8.90;;;4.70;;
65597;SDS011;52267;51.984;20.956;2022-07-11T05:03:02;7.10;;;4.70;;
65597;SDS011;52267;51.984;20.956;2022-07-11T05:05:28;5.30;;;3.50;;
65597;SDS011;52267;51.984;20.956;2022-07-11T05:07:55;8.00;;;4.80;;
65597;SDS011;52267;51.984;20.956;2022-07-11T05:10:21;6.00;;;4.80;;
65597;SDS011;52267;51.984;20.956;2022-07-11T05:12:47;8.10;;;4.40;;
65597;SDS011;52267;51.984;20.956;2022-07-11T05:15:13;7.50;;;4.80;;
65597;SDS011;52267;51.984;20.956;2022-07-11T05:17:40;7.80;;;5.10;;
65597;SDS011;52267;51.984;20.956;2022-07-11T05:20:07;8.30;;;4.70;;
65597;SDS011;52267;51.984;20.956;2022-07-11T05:22:33;6.50;;;4.50;;
65597;SDS011;52267;51.984;20.956;2022-07-11T05:24:59;8.40;;;4.30;;
65597;SDS011;52267;51.984;20.956;2022-07-11T05:27:26;7.40;;;4.60;;
65597;SDS011;52267;51.984;20.956;2022-07-11T05:29:52;6.80;;;4.50;;
65597;SDS011;52267;51.984;20.956;2022-07-11T05:32:18;9.20;;;5.30;;
65597;SDS011;52267;51.984;20.956;2022-07-11T05:34:44;8.90;;;5.50;;
65597;SDS011;52267;51.984;20.956;2022-07-11T05:37:11;8.10;;;5.10;;
65597;SDS011;52267;51.984;20.956;2022-07-11T05:39:37;6.20;;;4.10;;
65597;SDS011;52267;51.984;20.956;2022-07-11T05:42:03;6.10;;;4.00;;
65597;SDS011;52267;51.984;20.956;2022-07-11T05:44:30;4.60;;;3.50;;
65597;SDS011;52267;51.984;20.956;2022-07-11T05:47:00;7.30;;;3.90;;
65597;SDS011;52267;51.984;20.956;2022-07-11T05:49:27;6.60;;;4.20;;
65597;SDS011;52267;51.984;20.956;2022-07-11T05:51:54;6.20;;;4.40;;
65597;SDS011;52267;51.984;20.956;2022-07-11T05:54:20;6.00;;;4.10;;
65597;SDS011;52267;51.984;20.956;2022-07-11T05:56:46;8.40;;;4.00;;
65597;SDS011;52267;51.984;20.956;2022-07-11T05:59:13;4.50;;;3.10;;
65597;SDS011;52267;51.984;20.956;2022-07-11T06:01:40;5.50;;;3.70;;
65597;SDS011;52267;51.984;20.956;2022-07-11T06:04:06;5.20;;;3.50;;
65597;SDS011;52267;51.984;20.956;2022-07-11T06:06:33;7.00;;;3.40;;
65597;SDS011;52267;51.984;20.956;2022-07-11T06:08:59;7.60;;;3.50;;
65597;SDS011;52267;51.984;20.956;2022-07-11T06:11:26;4.50;;;3.50;;
65597;SDS011;52267;51.984;20.956;2022-07-11T06:13:52;5.40;;;2.90;;
65597;SDS011;52267;51.984;20.956;2022-07-11T06:16:18;5.30;;;3.30;;
65597;SDS011;52267;51.984;20.956;2022-07-11T06:18:45;7.50;;;3.80;;
65597;SDS011;52267;51.984;20.956;2022-07-11T06:21:12;8.00;;;3.50;;
65597;SDS011;52267;51.984;20.956;2022-07-11T06:23:39;6.20;;;3.00;;
65597;SDS011;52267;51.984;20.956;2022-07-11T06:26:06;8.40;;;3.90;;
65597;SDS011;52267;51.984;20.956;2022-07-11T06:28:32;8.30;;;3.80;;
65597;SDS011;52267;51.984;20.956;2022-07-11T06:31:00;5.40;;;3.60;;
65597;SDS011;52267;51.984;20.956;2022-07-11T06:33:26;8.10;;;4.10;;
65597;SDS011;52267;51.984;20.956;2022-07-11T06:35:52;7.40;;;4.10;;
65597;SDS011;52267;51.984;20.956;2022-07-11T06:38:19;6.40;;;4.60;;
65597;SDS011;52267;51.984;20.956;2022-07-11T06:40:46;7.60;;;4.70;;
65597;SDS011;52267;51.984;20.956;2022-07-11T06:43:13;8.40;;;4.10;;
65597;SDS011;52267;51.984;20.956;2022-07-11T06:45:40;7.60;;;4.50;;
65597;SDS011;52267;51.984;20.956;2022-07-11T06:48:07;6.40;;;4.40;;
65597;SDS011;52267;51.984;20.956;2022-07-11T06:50:33;8.00;;;4.50;;
65597;SDS011;52267;51.984;20.956;2022-07-11T06:52:59;7.50;;;4.50;;
65597;SDS011;52267;51.984;20.956;2022-07-11T06:55:25;6.60;;;4.30;;
65597;SDS011;52267;51.984;20.956;2022-07-11T06:57:52;5.90;;;4.00;;
65597;SDS011;52267;51.984;20.956;2022-07-11T07:00:18;7.00;;;4.50;;
65597;SDS011;52267;51.984;20.956;2022-07-11T07:02:45;9.60;;;4.70;;
65597;SDS011;52267;51.984;20.956;2022-07-11T07:05:11;7.10;;;4.60;;
65597;SDS011;52267;51.984;20.956;2022-07-11T07:07:38;7.50;;;3.80;;
65597;SDS011;52267;51.984;20.956;2022-07-11T07:10:05;6.30;;;4.60;;
65597;SDS011;52267;51.984;20.956;2022-07-11T07:12:31;8.00;;;5.10;;
65597;SDS011;52267;51.984;20.956;2022-07-11T07:15:00;7.80;;;4.90;;
65597;SDS011;52267;51.984;20.956;2022-07-11T07:17:26;9.00;;;6.50;;
65597;SDS011;52267;51.984;20.956;2022-07-11T07:19:52;8.80;;;5.10;;
65597;SDS011;52267;51.984;20.956;2022-07-11T07:22:18;12.00;;;6.10;;
65597;SDS011;52267;51.984;20.956;2022-07-11T07:24:45;9.90;;;6.60;;
65597;SDS011;52267;51.984;20.956;2022-07-11T07:27:11;8.80;;;5.50;;
65597;SDS011;52267;51.984;20.956;2022-07-11T07:29:38;10.20;;;6.70;;
65597;SDS011;52267;51.984;20.956;2022-07-11T07:32:05;10.00;;;6.60;;
65597;SDS011;52267;51.984;20.956;2022-07-11T07:34:32;11.50;;;7.40;;
65597;SDS011;52267;51.984;20.956;2022-07-11T07:36:59;9.60;;;7.50;;
65597;SDS011;52267;51.984;20.956;2022-07-11T07:39:26;10.10;;;6.80;;
65597;SDS011;52267;51.984;20.956;2022-07-11T07:41:52;12.70;;;7.30;;
65597;SDS011;52267;51.984;20.956;2022-07-11T07:44:18;13.30;;;8.20;;
65597;SDS011;52267;51.984;20.956;2022-07-11T07:46:45;9.80;;;6.70;;
65597;SDS011;52267;51.984;20.956;2022-07-11T07:49:12;9.60;;;6.00;;
65597;SDS011;52267;51.984;20.956;2022-07-11T07:51:38;10.40;;;6.60;;
65597;SDS011;52267;51.984;20.956;2022-07-11T07:54:04;14.40;;;7.30;;
65597;SDS011;52267;51.984;20.956;2022-07-11T07:56:31;8.60;;;6.80;;
65597;SDS011;52267;51.984;20.956;2022-07-11T07:58:58;9.10;;;6.40;;
65597;SDS011;52267;51.984;20.956;2022-07-11T08:01:24;9.60;;;6.10;;
65597;SDS011;52267;51.984;20.956;2022-07-11T08:04:03;9.30;;;7.00;;
65597;SDS011;52267;51.984;20.956;2022-07-11T08:06:31;9.10;;;5.90;;
65597;SDS011;52267;51.984;20.956;2022-07-11T08:08:58;8.80;;;6.50;;
65597;SDS011;52267;51.984;20.956;2022-07-11T08:11:25;7.70;;;6.50;;
65597;SDS011;52267;51.984;20.956;2022-07-11T08:13:52;7.90;;;6.10;;
65597;SDS011;52267;51.984;20.956;2022-07-11T08:16:19;12.50;;;7.20;;
65597;SDS011;52267;51.984;20.956;2022-07-11T08:18:46;9.90;;;7.20;;
65597;SDS011;52267;51.984;20.956;2022-07-11T08:21:12;9.40;;;7.90;;
65597;SDS011;52267;51.984;20.956;2022-07-11T08:23:38;10.70;;;8.00;;
65597;SDS011;52267;51.984;20.956;2022-07-11T08:26:05;10.10;;;8.40;;
65597;SDS011;52267;51.984;20.956;2022-07-11T08:28:31;11.90;;;8.60;;
65597;SDS011;52267;51.984;20.956;2022-07-11T08:30:58;10.30;;;8.00;;
65597;SDS011;52267;51.984;20.956;2022-07-11T08:33:24;11.60;;;7.70;;
65597;SDS011;52267;51.984;20.956;2022-07-11T08:35:50;9.30;;;7.70;;
65597;SDS011;52267;51.984;20.956;2022-07-11T08:38:16;10.00;;;7.50;;
65597;SDS011;52267;51.984;20.956;2022-07-11T08:40:43;6.70;;;5.50;;
65597;SDS011;52267;51.984;20.956;2022-07-11T08:43:17;10.40;;;6.70;;
65597;SDS011;52267;51.984;20.956;2022-07-11T08:45:52;8.80;;;6.10;;
65597;SDS011;52267;51.984;20.956;2022-07-11T08:48:21;9.70;;;6.50;;
65597;SDS011;52267;51.984;20.956;2022-07-11T08:50:51;8.50;;;5.90;;
65597;SDS011;52267;51.984;20.956;2022-07-11T08:53:18;6.10;;;5.40;;
65597;SDS011;52267;51.984;20.956;2022-07-11T08:55:44;7.50;;;5.20;;
65597;SDS011;52267;51.984;20.956;2022-07-11T08:58:13;6.40;;;5.70;;
65597;SDS011;52267;51.984;20.956;2022-07-11T09:00:41;5.80;;;5.10;;
65597;SDS011;52267;51.984;20.956;2022-07-11T09:03:13;6.40;;;4.80;;
65597;SDS011;52267;51.984;20.956;2022-07-11T09:05:40;7.40;;;5.30;;
65597;SDS011;52267;51.984;20.956;2022-07-11T09:08:06;5.90;;;5.30;;
65597;SDS011;52267;51.984;20.956;2022-07-11T09:10:33;8.40;;;5.20;;
65597;SDS011;52267;51.984;20.956;2022-07-11T09:17:59;5.50;;;4.90;;
65597;SDS011;52267;51.984;20.956;2022-07-11T09:20:25;9.80;;;4.80;;
65597;SDS011;52267;51.984;20.956;2022-07-11T09:23:21;5.90;;;5.20;;
65597;SDS011;52267;51.984;20.956;2022-07-11T09:26:06;5.70;;;5.10;;
65597;SDS011;52267;51.984;20.956;2022-07-11T09:28:32;8.20;;;6.00;;
65597;SDS011;52267;51.984;20.956;2022-07-11T09:31:14;8.10;;;6.00;;
65597;SDS011;52267;51.984;20.956;2022-07-11T09:34:03;9.80;;;5.70;;
65597;SDS011;52267;51.984;20.956;2022-07-11T09:36:42;8.00;;;6.10;;
65597;SDS011;52267;51.984;20.956;2022-07-11T09:39:21;8.50;;;5.80;;
65597;SDS011;52267;51.984;20.956;2022-07-11T09:41:50;6.80;;;6.10;;
65597;SDS011;52267;51.984;20.956;2022-07-11T09:44:20;6.80;;;6.10;;
65597;SDS011;52267;51.984;20.956;2022-07-11T09:46:50;6.80;;;4.90;;
65597;SDS011;52267;51.984;20.956;2022-07-11T09:49:30;7.70;;;5.40;;
65597;SDS011;52267;51.984;20.956;2022-07-11T09:52:13;6.00;;;3.90;;
65597;SDS011;52267;51.984;20.956;2022-07-11T09:55:00;4.40;;;2.70;;
65597;SDS011;52267;51.984;20.956;2022-07-11T09:57:34;4.70;;;3.60;;
65597;SDS011;52267;51.984;20.956;2022-07-11T10:02:31;4.30;;;2.80;;
65597;SDS011;52267;51.984;20.956;2022-07-11T10:04:59;4.40;;;2.90;;
65597;SDS011;52267;51.984;20.956;2022-07-11T10:07:26;3.70;;;2.40;;
65597;SDS011;52267;51.984;20.956;2022-07-11T10:09:53;3.50;;;2.30;;
65597;SDS011;52267;51.984;20.956;2022-07-11T10:12:20;4.10;;;2.10;;
65597;SDS011;52267;51.984;20.956;2022-07-11T10:14:48;3.70;;;2.40;;
65597;SDS011;52267;51.984;20.956;2022-07-11T10:17:34;3.70;;;2.40;;
65597;SDS011;52267;51.984;20.956;2022-07-11T10:20:12;2.10;;;1.40;;
65597;SDS011;52267;51.984;20.956;2022-07-11T10:22:49;2.70;;;1.60;;
65597;SDS011;52267;51.984;20.956;2022-07-11T10:28:26;2.40;;;1.30;;
65597;SDS011;52267;51.984;20.956;2022-07-11T10:30:58;2.50;;;1.40;;
65597;SDS011;52267;51.984;20.956;2022-07-11T10:33:30;3.40;;;1.70;;
65597;SDS011;52267;51.984;20.956;2022-07-11T10:35:57;2.50;;;1.60;;
65597;SDS011;52267;51.984;20.956;2022-07-11T10:38:24;3.80;;;1.40;;
65597;SDS011;52267;51.984;20.956;2022-07-11T10:40:53;3.30;;;2.40;;
65597;SDS011;52267;51.984;20.956;2022-07-11T10:46:01;2.50;;;1.50;;
65597;SDS011;52267;51.984;20.956;2022-07-11T10:48:30;3.80;;;2.40;;
65597;SDS011;52267;51.984;20.956;2022-07-11T10:51:08;3.50;;;2.70;;
65597;SDS011;52267;51.984;20.956;2022-07-11T10:53:46;3.20;;;2.90;;
65597;SDS011;52267;51.984;20.956;2022-07-11T10:59:16;3.70;;;2.90;;
65597;SDS011;52267;51.984;20.956;2022-07-11T11:07:30;4.70;;;2.60;;
65597;SDS011;52267;51.984;20.956;2022-07-11T11:09:58;3.80;;;2.60;;
65597;SDS011;52267;51.984;20.956;2022-07-11T11:15:43;3.20;;;2.20;;
65597;SDS011;52267;51.984;20.956;2022-07-11T11:18:34;2.80;;;2.00;;
65597;SDS011;52267;51.984;20.956;2022-07-11T11:26:26;2.30;;;1.60;;
65597;SDS011;52267;51.984;20.956;2022-07-11T11:29:08;2.60;;;1.50;;
65597;SDS011;52267;51.984;20.956;2022-07-11T11:31:35;3.20;;;1.80;;
65597;SDS011;52267;51.984;20.956;2022-07-11T11:34:03;2.20;;;1.40;;
65597;SDS011;52267;51.984;20.956;2022-07-11T11:36:30;3.00;;;1.60;;
65597;SDS011;52267;51.984;20.956;2022-07-11T11:38:57;2.90;;;1.70;;
65597;SDS011;52267;51.984;20.956;2022-07-11T11:41:28;2.90;;;1.50;;
65597;SDS011;52267;51.984;20.956;2022-07-11T11:43:57;2.70;;;1.30;;
65597;SDS011;52267;51.984;20.956;2022-07-11T11:46:29;2.70;;;1.00;;
65597;SDS011;52267;51.984;20.956;2022-07-11T11:48:58;2.10;;;1.10;;
65597;SDS011;52267;51.984;20.956;2022-07-11T11:51:27;2.30;;;1.10;;
65597;SDS011;52267;51.984;20.956;2022-07-11T11:53:56;2.50;;;1.20;;
65597;SDS011;52267;51.984;20.956;2022-07-11T11:56:32;1.80;;;1.10;;
65597;SDS011;52267;51.984;20.956;2022-07-11T11:59:09;1.70;;;1.00;;
65597;SDS011;52267;51.984;20.956;2022-07-11T12:01:40;1.90;;;1.00;;
65597;SDS011;52267;51.984;20.956;2022-07-11T12:04:15;2.50;;;1.20;;
65597;SDS011;52267;51.984;20.956;2022-07-11T12:09:20;2.00;;;1.10;;
65597;SDS011;52267;51.984;20.956;2022-07-11T12:12:07;1.80;;;1.10;;
65597;SDS011;52267;51.984;20.956;2022-07-11T12:14:52;2.00;;;1.10;;
65597;SDS011;52267;51.984;20.956;2022-07-11T12:17:25;1.70;;;0.90;;
65597;SDS011;52267;51.984;20.956;2022-07-11T12:19:52;1.80;;;1.00;;
65597;SDS011;52267;51.984;20.956;2022-07-11T12:22:20;1.20;;;0.70;;
65597;SDS011;52267;51.984;20.956;2022-07-11T12:24:50;2.30;;;1.00;;
65597;SDS011;52267;51.984;20.956;2022-07-11T12:27:22;3.40;;;0.90;;
65597;SDS011;52267;51.984;20.956;2022-07-11T12:29:50;1.40;;;0.70;;
65597;SDS011;52267;51.984;20.956;2022-07-11T12:32:18;1.10;;;0.70;;
65597;SDS011;52267;51.984;20.956;2022-07-11T12:34:47;1.50;;;0.70;;
65597;SDS011;52267;51.984;20.956;2022-07-11T12:37:17;1.40;;;0.70;;
65597;SDS011;52267;51.984;20.956;2022-07-11T12:45:13;1.30;;;0.80;;
65597;SDS011;52267;51.984;20.956;2022-07-11T12:47:46;2.00;;;1.10;;
65597;SDS011;52267;51.984;20.956;2022-07-11T12:50:23;2.20;;;1.20;;
65597;SDS011;52267;51.984;20.956;2022-07-11T12:52:54;3.50;;;1.40;;
65597;SDS011;52267;51.984;20.956;2022-07-11T13:01:03;3.20;;;1.80;;
65597;SDS011;52267;51.984;20.956;2022-07-11T13:03:31;2.80;;;1.70;;
65597;SDS011;52267;51.984;20.956;2022-07-11T13:06:00;3.00;;;2.20;;
65597;SDS011;52267;51.984;20.956;2022-07-11T13:08:30;3.10;;;1.60;;
65597;SDS011;52267;51.984;20.956;2022-07-11T13:13:47;2.50;;;1.20;;
65597;SDS011;52267;51.984;20.956;2022-07-11T13:16:16;2.40;;;1.20;;
65597;SDS011;52267;51.984;20.956;2022-07-11T13:18:43;1.40;;;0.80;;
65597;SDS011;52267;51.984;20.956;2022-07-11T13:21:11;1.40;;;0.60;;
65597;SDS011;52267;51.984;20.956;2022-07-11T13:23:38;1.40;;;0.50;;
65597;SDS011;52267;51.984;20.956;2022-07-11T13:26:06;0.70;;;0.50;;
65597;SDS011;52267;51.984;20.956;2022-07-11T13:28:33;1.40;;;0.60;;
65597;SDS011;52267;51.984;20.956;2022-07-11T13:30:59;1.40;;;0.60;;
65597;SDS011;52267;51.984;20.956;2022-07-11T13:33:26;1.40;;;0.70;;
65597;SDS011;52267;51.984;20.956;2022-07-11T13:35:52;1.20;;;0.60;;
65597;SDS011;52267;51.984;20.956;2022-07-11T13:38:19;1.80;;;0.60;;
65597;SDS011;52267;51.984;20.956;2022-07-11T13:40:46;1.20;;;0.60;;
65597;SDS011;52267;51.984;20.956;2022-07-11T13:43:13;2.40;;;0.80;;
65597;SDS011;52267;51.984;20.956;2022-07-11T13:45:41;1.80;;;0.50;;
65597;SDS011;52267;51.984;20.956;2022-07-11T13:48:09;2.30;;;0.80;;
65597;SDS011;52267;51.984;20.956;2022-07-11T13:50:35;1.00;;;0.70;;
65597;SDS011;52267;51.984;20.956;2022-07-11T13:53:02;3.60;;;0.80;;
65597;SDS011;52267;51.984;20.956;2022-07-11T13:55:28;1.80;;;0.80;;
65597;SDS011;52267;51.984;20.956;2022-07-11T13:57:59;1.80;;;0.90;;
65597;SDS011;52267;51.984;20.956;2022-07-11T14:00:28;2.90;;;1.00;;
65597;SDS011;52267;51.984;20.956;2022-07-11T14:02:58;1.60;;;1.00;;
65597;SDS011;52267;51.984;20.956;2022-07-11T14:05:26;3.50;;;1.40;;
65597;SDS011;52267;51.984;20.956;2022-07-11T14:07:52;3.60;;;1.50;;
65597;SDS011;52267;51.984;20.956;2022-07-11T14:10:18;3.40;;;1.10;;
65597;SDS011;52267;51.984;20.956;2022-07-11T14:12:45;2.00;;;1.20;;
65597;SDS011;52267;51.984;20.956;2022-07-11T14:15:11;2.00;;;1.10;;
65597;SDS011;52267;51.984;20.956;2022-07-11T14:17:38;2.00;;;0.90;;
65597;SDS011;52267;51.984;20.956;2022-07-11T14:20:04;2.20;;;1.20;;
65597;SDS011;52267;51.984;20.956;2022-07-11T14:22:31;1.70;;;1.00;;
65597;SDS011;52267;51.984;20.956;2022-07-11T14:24:58;2.00;;;1.00;;
65597;SDS011;52267;51.984;20.956;2022-07-11T14:27:24;4.90;;;1.00;;
65597;SDS011;52267;51.984;20.956;2022-07-11T14:29:50;2.50;;;1.10;;
65597;SDS011;52267;51.984;20.956;2022-07-11T14:32:17;2.60;;;1.40;;
65597;SDS011;52267;51.984;20.956;2022-07-11T14:34:44;3.60;;;1.10;;
65597;SDS011;52267;51.984;20.956;2022-07-11T14:37:10;2.80;;;1.20;;
65597;SDS011;52267;51.984;20.956;2022-07-11T14:39:36;2.30;;;1.40;;
65597;SDS011;52267;51.984;20.956;2022-07-11T14:42:03;3.30;;;1.40;;
65597;SDS011;52267;51.984;20.956;2022-07-11T14:44:29;5.10;;;1.60;;
65597;SDS011;52267;51.984;20.956;2022-07-11T14:46:56;3.40;;;1.40;;
65597;SDS011;52267;51.984;20.956;2022-07-11T14:49:22;2.70;;;1.20;;
65597;SDS011;52267;51.984;20.956;2022-07-11T14:51:49;2.90;;;1.30;;
65597;SDS011;52267;51.984;20.956;2022-07-11T14:54:15;3.70;;;1.40;;
65597;SDS011;52267;51.984;20.956;2022-07-11T14:56:41;3.30;;;1.40;;
65597;SDS011;52267;51.984;20.956;2022-07-11T14:59:08;3.20;;;1.40;;
65597;SDS011;52267;51.984;20.956;2022-07-11T15:01:34;3.70;;;1.50;;
65597;SDS011;52267;51.984;20.956;2022-07-11T15:04:01;2.90;;;1.30;;
65597;SDS011;52267;51.984;20.956;2022-07-11T15:06:30;3.80;;;1.40;;
65597;SDS011;52267;51.984;20.956;2022-07-11T15:09:15;3.60;;;1.50;;
65597;SDS011;52267;51.984;20.956;2022-07-11T15:12:00;2.70;;;1.20;;
65597;SDS011;52267;51.984;20.956;2022-07-11T15:14:44;3.00;;;1.20;;
65597;SDS011;52267;51.984;20.956;2022-07-11T15:17:11;2.20;;;1.00;;
65597;SDS011;52267;51.984;20.956;2022-07-11T15:19:38;5.10;;;1.60;;
65597;SDS011;52267;51.984;20.956;2022-07-11T15:22:06;2.30;;;1.20;;
65597;SDS011;52267;51.984;20.956;2022-07-11T15:24:33;2.20;;;1.10;;
65597;SDS011;52267;51.984;20.956;2022-07-11T15:27:00;2.60;;;1.40;;
65597;SDS011;52267;51.984;20.956;2022-07-11T15:29:27;3.10;;;1.30;;
65597;SDS011;52267;51.984;20.956;2022-07-11T15:31:53;3.20;;;1.40;;